createdAt,value
2018-11-27T00:00:37.275Z,22.93
2018-11-27T00:03:07.256Z,22.47
2018-11-27T00:05:36.849Z,22.23
2018-11-27T00:08:05.729Z,22.47
2018-11-27T00:10:35.657Z,22.03
2018-11-27T00:13:04.027Z,22.90
2018-11-27T00:15:32.362Z,22.20
2018-11-27T00:18:02.909Z,22.00
2018-11-27T00:20:31.213Z,21.70
2018-11-27T00:22:59.547Z,21.67
2018-11-27T00:25:28.485Z,21.57
2018-11-27T00:27:56.791Z,21.20
2018-11-27T00:30:25.088Z,21.47
2018-11-27T00:32:53.395Z,21.50
2018-11-27T00:35:23.471Z,20.83
2018-11-27T00:37:51.771Z,20.97
2018-11-27T00:40:22.549Z,20.97
2018-11-27T00:42:51.634Z,20.67
2018-11-27T00:45:20.920Z,20.40
2018-11-27T00:47:50.054Z,21.07
2018-11-27T00:50:20.670Z,21.07
2018-11-27T00:52:50.422Z,21.63
2018-11-27T00:55:19.627Z,21.53
2018-11-27T00:57:49.982Z,22.33
2018-11-27T01:00:19.397Z,21.23
2018-11-27T01:02:48.049Z,20.87
2018-11-27T01:05:17.989Z,20.97
2018-11-27T01:07:46.372Z,21.20
2018-11-27T01:10:23.687Z,20.97
2018-11-27T01:12:52.076Z,21.60
2018-11-27T01:15:20.518Z,20.50
2018-11-27T01:17:50.981Z,21.73
2018-11-27T01:20:21.171Z,21.00
2018-11-27T01:22:49.872Z,20.20
2018-11-27T01:25:18.197Z,20.23
2018-11-27T01:27:46.521Z,21.23
2018-11-27T01:30:19.039Z,20.87
2018-11-27T01:32:47.614Z,20.43
2018-11-27T01:35:17.072Z,21.43
2018-11-27T01:37:45.621Z,23.00
2018-11-27T01:40:15.969Z,21.63
2018-11-27T01:42:44.414Z,22.80
2018-11-27T01:45:13.787Z,21.33
2018-11-27T01:47:42.088Z,23.37
2018-11-27T01:50:12.395Z,22.70
2018-11-27T01:52:40.687Z,23.00
2018-11-27T01:55:12.064Z,22.80
2018-11-27T01:57:40.397Z,22.97
2018-11-27T02:00:18.295Z,23.40
2018-11-27T02:02:46.593Z,23.57
2018-11-27T02:05:14.923Z,23.27
2018-11-27T02:07:43.251Z,23.03
2018-11-27T02:10:12.423Z,22.63
2018-11-27T02:12:43.188Z,24.17
2018-11-27T02:15:15.047Z,22.87
2018-11-27T02:17:43.429Z,23.33
2018-11-27T02:20:12.112Z,22.83
2018-11-27T02:22:40.723Z,23.53
2018-11-27T02:25:15.056Z,22.40
2018-11-27T02:27:43.390Z,22.40
2018-11-27T02:30:13.047Z,21.33
2018-11-27T02:32:41.705Z,23.27
2018-11-27T02:35:11.313Z,22.87
2018-11-27T02:37:39.652Z,22.60
2018-11-27T02:40:12.605Z,23.47
2018-11-27T02:42:41.144Z,22.53
2018-11-27T02:45:10.837Z,23.23
2018-11-27T02:47:39.504Z,23.47
2018-11-27T02:50:09.539Z,23.50
2018-11-27T02:52:37.886Z,23.67
2018-11-27T02:55:16.111Z,23.20
2018-11-27T02:57:44.761Z,23.07
2018-11-27T03:00:14.116Z,22.60
2018-11-27T03:02:42.417Z,23.93
2018-11-27T03:05:22.248Z,22.87
2018-11-27T03:07:50.563Z,22.57
2018-11-27T03:10:18.919Z,21.47
2018-11-27T03:12:47.269Z,22.37
2018-11-27T03:15:16.461Z,21.93
2018-11-27T03:17:45.279Z,23.07
2018-11-27T03:20:14.672Z,21.30
2018-11-27T03:22:43.030Z,22.17
2018-11-27T03:25:16.376Z,22.40
2018-11-27T03:27:45.587Z,22.83
2018-11-27T03:30:17.850Z,23.90
2018-11-27T03:32:47.461Z,23.13
2018-11-27T03:35:17.628Z,22.13
2018-11-27T03:37:47.392Z,21.17
2018-11-27T03:40:16.527Z,22.13
2018-11-27T03:42:45.301Z,22.77
2018-11-27T03:45:14.253Z,21.03
2018-11-27T03:47:45.503Z,22.60
2018-11-27T03:50:17.965Z,22.63
2018-11-27T03:52:46.780Z,23.13
2018-11-27T03:55:15.126Z,23.37
2018-11-27T03:57:43.481Z,23.33
2018-11-27T04:00:20.050Z,25.47
2018-11-27T04:02:50.554Z,25.57
2018-11-27T04:05:18.939Z,25.73
2018-11-27T04:07:47.226Z,26.63
2018-11-27T04:10:19.692Z,26.23
2018-11-27T04:12:48.316Z,26.20
2018-11-27T04:15:16.627Z,25.50
2018-11-27T04:17:44.995Z,25.50
2018-11-27T04:20:13.655Z,25.80
2018-11-27T04:22:42.859Z,25.40
2018-11-27T04:25:14.145Z,26.53
2018-11-27T04:27:42.745Z,26.93
2018-11-27T04:30:16.528Z,27.40
2018-11-27T04:32:45.767Z,28.27
2018-11-27T04:35:15.855Z,28.90
2018-11-27T04:37:44.309Z,27.77
2018-11-27T04:40:13.671Z,27.47
2018-11-27T04:42:42.741Z,28.70
2018-11-27T04:45:15.459Z,28.80
2018-11-27T04:47:50.409Z,29.03
2018-11-27T04:50:19.149Z,28.40
2018-11-27T04:52:47.485Z,27.17
2018-11-27T04:55:17.700Z,26.70
2018-11-27T04:57:46.979Z,28.03
2018-11-27T05:00:19.883Z,28.57
2018-11-27T05:02:48.247Z,29.07
2018-11-27T05:05:17.209Z,28.53
2018-11-27T05:07:45.606Z,29.17
2018-11-27T05:10:16.073Z,27.10
2018-11-27T05:12:44.638Z,27.60
2018-11-27T05:15:17.919Z,28.90
2018-11-27T05:17:48.275Z,27.73
2018-11-27T05:20:15.751Z,29.13
2018-11-27T05:22:44.126Z,26.77
2018-11-27T05:25:13.557Z,27.63
2018-11-27T05:27:43.092Z,29.20
2018-11-27T05:30:14.640Z,28.70
2018-11-27T05:32:42.967Z,29.73
2018-11-27T05:35:12.506Z,30.03
2018-11-27T05:37:41.698Z,29.40
2018-11-27T05:40:13.381Z,29.00
2018-11-27T05:42:41.741Z,27.83
2018-11-27T05:45:11.690Z,29.73
2018-11-27T05:47:40.114Z,29.30
2018-11-27T05:50:10.718Z,28.57
2018-11-27T05:52:39.018Z,29.43
2018-11-27T05:55:08.538Z,30.17
2018-11-27T05:57:36.883Z,29.10
2018-11-27T06:00:09.278Z,28.83
2018-11-27T06:02:37.826Z,28.80
2018-11-27T06:05:08.942Z,28.43
2018-11-27T06:07:37.258Z,30.00
2018-11-27T06:10:06.214Z,29.53
2018-11-27T06:12:34.504Z,28.77
2018-11-27T06:15:02.960Z,29.17
2018-11-27T06:17:31.278Z,28.70
2018-11-27T06:20:00.177Z,30.70
2018-11-27T06:22:28.478Z,30.70
2018-11-27T06:24:56.816Z,30.73
2018-11-27T06:27:25.116Z,28.40
2018-11-27T06:29:53.462Z,31.33
2018-11-27T06:32:21.762Z,30.43
2018-11-27T06:34:50.087Z,29.73
2018-11-27T06:37:18.400Z,29.07
2018-11-27T06:39:46.722Z,29.50
2018-11-27T06:42:15.057Z,28.70
2018-11-27T06:44:43.364Z,30.00
2018-11-27T06:47:11.674Z,28.47
2018-11-27T06:49:39.998Z,30.13
2018-11-27T06:52:08.339Z,29.90
2018-11-27T06:54:36.686Z,30.27
2018-11-27T06:57:05.071Z,29.97
2018-11-27T06:59:33.356Z,29.60
2018-11-27T07:02:01.634Z,29.67
2018-11-27T07:04:29.930Z,28.77
2018-11-27T07:06:58.286Z,29.77
2018-11-27T07:09:26.621Z,29.07
2018-11-27T07:11:55.611Z,27.97
2018-11-27T07:14:23.889Z,27.13
2018-11-27T07:16:52.210Z,26.97
2018-11-27T07:19:20.509Z,27.83
2018-11-27T07:21:48.838Z,27.57
2018-11-27T07:24:17.134Z,28.73
2018-11-27T07:26:45.440Z,26.00
2018-11-27T07:29:13.769Z,29.23
2018-11-27T07:31:42.058Z,27.67
2018-11-27T07:34:10.378Z,26.27
2018-11-27T07:36:38.692Z,27.37
2018-11-27T07:39:07.473Z,27.43
2018-11-27T07:41:35.777Z,26.87
2018-11-27T07:44:04.250Z,27.03
2018-11-27T07:46:32.534Z,25.97
2018-11-27T07:49:01.803Z,27.40
2018-11-27T07:51:29.260Z,25.73
2018-11-27T07:53:57.597Z,26.47
2018-11-27T07:56:25.904Z,25.00
2018-11-27T07:58:54.216Z,24.07
2018-11-27T08:01:22.530Z,24.23
2018-11-27T08:03:50.911Z,24.50
2018-11-27T08:06:19.221Z,25.67
2018-11-27T08:08:47.535Z,25.13
2018-11-27T08:11:15.861Z,25.73
2018-11-27T08:13:44.214Z,24.47
2018-11-27T08:16:12.542Z,24.57
2018-11-27T08:18:40.891Z,25.30
2018-11-27T08:21:09.210Z,25.80
2018-11-27T08:23:37.496Z,24.80
2018-11-27T08:26:06.338Z,23.17
2018-11-27T08:28:34.639Z,25.30
2018-11-27T08:31:02.976Z,23.43
2018-11-27T08:33:31.758Z,23.80
2018-11-27T08:36:00.062Z,23.73
2018-11-27T08:38:28.429Z,23.77
2018-11-27T08:40:56.702Z,23.73
2018-11-27T08:43:25.022Z,24.20
2018-11-27T08:45:53.330Z,24.93
2018-11-27T08:48:21.692Z,24.10
2018-11-27T08:50:50.040Z,23.07
2018-11-27T08:53:18.368Z,22.43
2018-11-27T08:55:46.664Z,21.53
2018-11-27T08:58:17.538Z,21.30
2018-11-27T09:00:45.864Z,23.13
2018-11-27T09:03:14.202Z,20.50
2018-11-27T09:05:42.542Z,20.63
2018-11-27T09:08:10.864Z,19.63
2018-11-27T09:10:39.191Z,20.97
2018-11-27T09:13:07.598Z,20.40
2018-11-27T09:15:36.136Z,21.27
2018-11-27T09:18:15.180Z,21.43
2018-11-27T09:20:43.481Z,20.67
2018-11-27T09:23:11.796Z,19.97
2018-11-27T09:25:40.132Z,20.40
2018-11-27T09:28:08.427Z,19.43
2018-11-27T09:30:36.756Z,20.10
2018-11-27T09:33:05.442Z,18.43
2018-11-27T09:35:33.772Z,20.07
2018-11-27T09:38:02.079Z,19.67
2018-11-27T09:40:30.407Z,19.17
2018-11-27T09:42:58.749Z,18.27
2018-11-27T09:45:27.071Z,18.23
2018-11-27T09:47:57.363Z,18.63
2018-11-27T09:50:25.733Z,17.13
2018-11-27T09:52:54.219Z,19.73
2018-11-27T09:55:24.747Z,17.63
2018-11-27T09:57:58.783Z,18.40
2018-11-27T10:00:25.219Z,17.60
2018-11-27T10:02:54.901Z,17.20
2018-11-27T10:05:23.245Z,16.30
2018-11-27T10:07:51.583Z,16.20
2018-11-27T10:10:21.377Z,16.63
2018-11-27T10:12:50.680Z,16.83
2018-11-27T10:15:23.108Z,17.37
2018-11-27T10:17:58.393Z,17.00
2018-11-27T10:20:28.937Z,18.10
2018-11-27T10:22:57.245Z,16.77
2018-11-27T10:25:25.603Z,17.20
2018-11-27T10:27:53.915Z,16.80
2018-11-27T10:30:25.433Z,17.13
2018-11-27T10:32:56.190Z,17.30
2018-11-27T10:35:25.698Z,16.07
2018-11-27T10:37:54.067Z,15.27
2018-11-27T10:40:22.447Z,15.93
2018-11-27T10:42:50.834Z,15.60
2018-11-27T10:45:20.183Z,15.53
2018-11-27T10:47:49.657Z,16.33
2018-11-27T10:50:18.473Z,15.07
2018-11-27T10:52:47.987Z,14.93
2018-11-27T10:55:18.340Z,15.40
2018-11-27T10:57:46.748Z,15.87
2018-11-27T11:00:30.379Z,15.40
2018-11-27T11:04:06.386Z,16.20
2018-11-27T11:06:34.829Z,15.90
2018-11-27T11:09:03.807Z,15.57
2018-11-27T11:11:32.144Z,15.37
2018-11-27T11:14:00.480Z,15.50
2018-11-27T11:16:28.803Z,14.20
2018-11-27T11:18:57.106Z,14.20
2018-11-27T11:21:25.433Z,13.97
2018-11-27T11:23:54.113Z,16.27
2018-11-27T11:26:22.545Z,14.10
2018-11-27T11:28:50.886Z,12.97
2018-11-27T11:31:19.180Z,11.80
2018-11-27T11:33:47.522Z,10.90
2018-11-27T11:36:15.819Z,11.13
2018-11-27T11:38:44.151Z,10.70
2018-11-27T11:41:12.457Z,10.83
2018-11-27T11:43:40.808Z,11.20
2018-11-27T11:46:09.122Z,10.37
2018-11-27T11:48:37.446Z,10.80
2018-11-27T11:51:06.467Z,11.70
2018-11-27T11:53:34.783Z,10.83
2018-11-27T11:56:03.142Z,10.23
2018-11-27T11:58:31.463Z,10.63
2018-11-27T12:00:59.832Z,10.30
2018-11-27T12:03:28.164Z,10.33
2018-11-27T12:05:56.483Z,11.43
2018-11-27T12:08:24.790Z,10.70
2018-11-27T12:10:53.094Z,11.13
2018-11-27T12:13:21.446Z,11.80
2018-11-27T12:15:49.743Z,12.50
2018-11-27T12:18:18.058Z,11.97
2018-11-27T12:20:46.368Z,11.37
2018-11-27T12:23:14.709Z,10.50
2018-11-27T12:25:43.052Z,9.77
2018-11-27T12:28:14.647Z,9.53
2018-11-27T12:30:40.582Z,9.57
2018-11-27T12:33:09.171Z,9.50
2018-11-27T12:35:37.519Z,10.63
2018-11-27T12:38:06.300Z,10.07
2018-11-27T12:40:34.649Z,11.10
2018-11-27T12:43:03.034Z,10.97
2018-11-27T12:45:32.346Z,10.83
2018-11-27T12:48:01.903Z,10.80
2018-11-27T12:50:43.663Z,11.00
2018-11-27T12:53:16.762Z,11.67
2018-11-27T12:55:43.011Z,12.30
2018-11-27T12:58:11.324Z,11.53
2018-11-27T13:00:39.630Z,11.97
2018-11-27T13:03:07.976Z,11.60
2018-11-27T13:05:38.257Z,12.30
2018-11-27T13:08:14.026Z,12.07
2018-11-27T13:10:42.451Z,11.40
2018-11-27T13:13:10.762Z,19.27
2018-11-27T13:15:39.880Z,12.50
2018-11-27T13:18:09.314Z,11.37
2018-11-27T13:20:38.020Z,11.17
2018-11-27T13:23:06.514Z,11.77
2018-11-27T13:25:35.066Z,11.03
2018-11-27T13:28:03.490Z,11.97
2018-11-27T13:30:38.627Z,11.83
2018-11-27T13:33:10.062Z,10.93
2018-11-27T13:35:38.883Z,11.90
2018-11-27T13:38:07.686Z,11.47
2018-11-27T13:40:36.402Z,12.07
2018-11-27T13:43:06.262Z,11.00
2018-11-27T13:45:34.626Z,10.87
2018-11-27T13:48:02.952Z,9.90
2018-11-27T13:50:31.293Z,8.80
2018-11-27T13:52:59.620Z,8.53
2018-11-27T13:55:27.974Z,8.93
2018-11-27T13:57:56.342Z,10.87
2018-11-27T14:00:24.733Z,23.10
2018-11-27T14:02:54.405Z,24.80
2018-11-27T14:05:23.979Z,9.90
2018-11-27T14:07:52.403Z,8.20
2018-11-27T14:10:20.802Z,9.43
2018-11-27T14:12:49.142Z,9.53
2018-11-27T14:15:24.494Z,24.80
2018-11-27T14:17:54.079Z,9.83
2018-11-27T14:20:22.472Z,9.17
2018-11-27T14:22:51.384Z,9.27
2018-11-27T14:25:19.802Z,8.87
2018-11-27T14:27:49.873Z,8.60
2018-11-27T14:30:19.541Z,8.47
2018-11-27T14:32:48.192Z,8.43
2018-11-27T14:35:17.408Z,8.50
2018-11-27T14:37:46.687Z,8.10
2018-11-27T14:40:17.025Z,8.47
2018-11-27T14:42:45.529Z,8.13
2018-11-27T14:45:17.739Z,9.07
2018-11-27T14:47:47.279Z,9.07
2018-11-27T14:50:15.621Z,8.83
2018-11-27T14:52:43.965Z,9.00
2018-11-27T14:55:16.355Z,9.23
2018-11-27T14:57:44.803Z,10.23
2018-11-27T15:00:20.388Z,9.03
2018-11-27T15:02:48.774Z,9.47
2018-11-27T15:05:34.085Z,10.40
2018-11-27T15:08:03.059Z,8.97
2018-11-27T15:10:31.421Z,9.70
2018-11-27T15:12:59.793Z,10.20
2018-11-27T15:15:28.124Z,9.50
2018-11-27T15:17:56.462Z,10.27
2018-11-27T15:20:24.847Z,11.10
2018-11-27T15:22:53.182Z,12.47
2018-11-27T15:25:21.588Z,13.17
2018-11-27T15:27:50.003Z,11.63
2018-11-27T15:30:23.340Z,12.00
2018-11-27T15:32:53.828Z,10.60
2018-11-27T15:35:22.222Z,14.07
2018-11-27T15:37:50.627Z,15.67
2018-11-27T15:40:20.662Z,14.87
2018-11-27T15:42:49.074Z,14.17
2018-11-27T15:45:21.426Z,10.67
2018-11-27T15:47:49.850Z,9.73
2018-11-27T15:50:18.182Z,9.50
2018-11-27T15:52:46.579Z,8.90
2018-11-27T15:55:16.867Z,9.57
2018-11-27T15:57:45.632Z,9.00
2018-11-27T16:00:15.178Z,9.80
2018-11-27T16:02:43.918Z,9.43
2018-11-27T16:05:12.874Z,9.37
2018-11-27T16:07:41.237Z,9.67
2018-11-27T16:10:11.844Z,9.47
2018-11-27T16:12:40.219Z,10.20
2018-11-27T16:15:16.385Z,9.70
2018-11-27T16:17:44.763Z,10.73
2018-11-27T16:20:14.944Z,11.27
2018-11-27T16:22:43.188Z,12.03
2018-11-27T16:25:12.626Z,11.67
2018-11-27T16:27:40.952Z,11.90
2018-11-27T16:30:18.804Z,12.30
2018-11-27T16:32:47.140Z,11.37
2018-11-27T16:35:15.864Z,11.67
2018-11-27T16:37:45.623Z,11.70
2018-11-27T16:40:15.977Z,13.23
2018-11-27T16:42:44.319Z,11.63
2018-11-27T16:45:19.498Z,11.10
2018-11-27T16:47:48.033Z,10.57
2018-11-27T16:50:17.087Z,11.07
2018-11-27T16:52:45.773Z,10.83
2018-11-27T16:55:15.241Z,12.03
2018-11-27T16:57:43.633Z,11.47
2018-11-27T17:00:18.349Z,11.23
2018-11-27T17:02:47.208Z,12.17
2018-11-27T17:05:15.631Z,9.70
2018-11-27T17:07:44.075Z,10.33
2018-11-27T17:10:13.491Z,9.70
2018-11-27T17:12:42.064Z,10.20
2018-11-27T17:15:19.506Z,10.60
2018-11-27T17:17:47.884Z,11.53
2018-11-27T17:20:48.304Z,52.50
2018-11-27T17:23:18.257Z,39.33
2018-11-27T17:25:46.683Z,11.17
2018-11-27T17:28:16.541Z,9.87
2018-11-27T17:30:48.664Z,8.80
2018-11-27T17:33:21.042Z,10.30
2018-11-27T17:35:49.425Z,10.87
2018-11-27T17:38:17.806Z,11.73
2018-11-27T17:40:52.911Z,11.13
2018-11-27T17:43:21.329Z,11.30
2018-11-27T17:45:49.737Z,12.27
2018-11-27T17:48:18.119Z,12.13
2018-11-27T17:50:46.710Z,12.30
2018-11-27T17:53:15.126Z,12.33
2018-11-27T17:55:43.687Z,13.43
2018-11-27T17:58:12.111Z,13.20
2018-11-27T18:00:40.749Z,14.07
2018-11-27T18:03:18.348Z,13.87
2018-11-27T18:05:46.866Z,15.03
2018-11-27T18:08:16.086Z,14.27
2018-11-27T18:10:45.208Z,13.37
2018-11-27T18:13:14.891Z,13.83
2018-11-27T18:15:45.926Z,14.33
2018-11-27T18:18:15.563Z,14.30
2018-11-27T18:20:44.718Z,14.70
2018-11-27T18:23:14.186Z,14.57
2018-11-27T18:25:43.103Z,13.80
2018-11-27T18:28:12.369Z,15.57
2018-11-27T18:30:41.665Z,14.83
2018-11-27T18:33:11.413Z,15.43
2018-11-27T18:35:39.873Z,16.33
2018-11-27T18:38:08.322Z,15.13
2018-11-27T18:40:37.701Z,14.40
2018-11-27T18:43:06.344Z,14.73
2018-11-27T18:45:34.820Z,14.93
2018-11-27T18:48:03.316Z,14.40
2018-11-27T18:50:33.540Z,14.70
2018-11-27T18:53:02.001Z,14.73
2018-11-27T18:55:30.452Z,14.83
2018-11-27T18:57:59.965Z,15.03
2018-11-27T19:00:29.671Z,14.10
2018-11-27T19:03:00.442Z,14.37
2018-11-27T19:05:29.196Z,14.63
2018-11-27T19:07:58.653Z,14.33
2018-11-27T19:10:28.299Z,14.87
2018-11-27T19:12:56.824Z,94.30
2018-11-27T19:15:36.869Z,17.60
2018-11-27T19:18:18.783Z,15.40
2018-11-27T19:20:47.287Z,15.87
2018-11-27T19:23:16.579Z,19.03
2018-11-27T19:25:46.175Z,15.30
2018-11-27T19:28:16.377Z,15.07
2018-11-27T19:30:45.245Z,15.13
2018-11-27T19:33:14.380Z,14.17
2018-11-27T19:35:43.271Z,15.67
2018-11-27T19:38:13.477Z,15.47
2018-11-27T19:40:42.389Z,15.73
2018-11-27T19:43:10.863Z,17.60
2018-11-27T19:45:39.336Z,18.43
2018-11-27T19:48:10.208Z,32.30
2018-11-27T19:50:39.719Z,26.37
2018-11-27T19:53:12.129Z,26.87
2018-11-27T19:55:40.073Z,25.77
2018-11-27T19:58:11.020Z,24.70
2018-11-27T20:00:40.083Z,20.97
2018-11-27T20:03:11.049Z,22.07
2018-11-27T20:05:40.234Z,21.87
2018-11-27T20:08:12.759Z,17.70
2018-11-27T20:10:42.945Z,21.50
2018-11-27T20:13:12.657Z,20.87
2018-11-27T20:15:41.389Z,15.63
2018-11-27T20:18:10.969Z,14.50
2018-11-27T20:20:41.823Z,14.20
2018-11-27T20:23:10.571Z,14.13
2018-11-27T20:25:40.055Z,14.93
2018-11-27T20:28:10.342Z,14.53
2018-11-27T20:30:40.309Z,14.57
2018-11-27T20:33:08.827Z,13.60
2018-11-27T20:35:37.949Z,13.17
2018-11-27T20:38:08.964Z,13.93
2018-11-27T20:40:38.140Z,14.33
2018-11-27T20:43:07.711Z,14.37
2018-11-27T20:45:38.395Z,14.60
2018-11-27T20:48:13.540Z,14.23
2018-11-27T20:50:42.413Z,15.13
2018-11-27T20:53:10.936Z,25.03
2018-11-27T20:55:43.495Z,15.07
2018-11-27T20:58:13.463Z,15.57
2018-11-27T21:00:46.043Z,15.33
2018-11-27T21:03:19.547Z,15.53
2018-11-27T21:05:48.961Z,15.93
2018-11-27T21:08:17.732Z,15.13
2018-11-27T21:10:46.909Z,16.27
2018-11-27T21:13:15.624Z,16.37
2018-11-27T21:15:44.596Z,16.90
2018-11-27T21:18:13.361Z,16.10
2018-11-27T21:20:42.862Z,16.40
2018-11-27T21:23:12.131Z,16.30
2018-11-27T21:25:41.629Z,16.43
2018-11-27T21:28:15.530Z,16.63
2018-11-27T21:30:45.222Z,17.43
2018-11-27T21:33:13.697Z,17.17
2018-11-27T21:35:42.820Z,18.00
2018-11-27T21:38:12.540Z,17.53
2018-11-27T21:40:40.958Z,18.10
2018-11-27T21:43:09.679Z,18.33
2018-11-27T21:45:39.259Z,17.93
2018-11-27T21:48:08.545Z,18.37
2018-11-27T21:50:42.080Z,18.00
2018-11-27T21:53:10.671Z,20.53
2018-11-27T21:55:40.217Z,20.87
2018-11-27T21:58:09.775Z,21.70
2018-11-27T22:00:40.331Z,23.60
2018-11-27T22:03:09.225Z,23.03
2018-11-27T22:05:37.639Z,23.10
2018-11-27T22:08:08.025Z,22.80
2018-11-27T22:10:36.568Z,22.97
2018-11-27T22:13:06.081Z,24.50
2018-11-27T22:15:36.756Z,22.23
2018-11-27T22:18:06.717Z,22.10
2018-11-27T22:20:35.046Z,23.63
2018-11-27T22:23:03.543Z,23.33
2018-11-27T22:25:31.883Z,22.70
2018-11-27T22:28:00.491Z,22.43
2018-11-27T22:30:28.863Z,23.50
2018-11-27T22:32:57.293Z,24.03
2018-11-27T22:35:25.633Z,23.53
2018-11-27T22:37:53.989Z,24.90
2018-11-27T22:40:23.881Z,23.83
2018-11-27T22:42:52.976Z,25.43
2018-11-27T22:45:23.885Z,25.73
2018-11-27T22:47:52.217Z,25.60
2018-11-27T22:50:20.563Z,25.97
2018-11-27T22:52:48.869Z,25.27
2018-11-27T22:55:17.188Z,25.67
2018-11-27T22:57:45.530Z,25.50
2018-11-27T23:00:19.575Z,25.13
2018-11-27T23:02:47.971Z,26.67
2018-11-27T23:05:16.904Z,26.00
2018-11-27T23:07:45.204Z,26.40
2018-11-27T23:10:14.216Z,25.67
2018-11-27T23:12:42.547Z,26.27
2018-11-27T23:15:12.219Z,25.77
2018-11-27T23:17:40.541Z,24.57
2018-11-27T23:20:11.365Z,25.80
2018-11-27T23:22:39.713Z,26.47
2018-11-27T23:25:09.686Z,26.23
2018-11-27T23:27:38.014Z,26.10
2018-11-27T23:30:11.791Z,26.27
2018-11-27T23:32:40.110Z,25.53
2018-11-27T23:35:08.479Z,26.57
2018-11-27T23:37:36.824Z,25.43
2018-11-27T23:40:07.408Z,25.77
2018-11-27T23:42:35.709Z,25.00
2018-11-27T23:45:04.334Z,25.73
2018-11-27T23:47:32.655Z,25.70
2018-11-27T23:50:00.955Z,25.63
2018-11-27T23:52:29.287Z,27.07
2018-11-27T23:54:57.595Z,26.73
2018-11-27T23:57:25.923Z,25.33
2018-11-27T23:59:54.219Z,26.77
